sensor_id;sensor_type;location;lat;lon;timestamp;P1;durP1;ratioP1;P2;durP2;ratioP2
32106;SDS011;18622;51.998;10.440;2023-08-20T03:33:29;33.03;;;23.17;;
32106;SDS011;18622;51.998;10.440;2023-08-20T03:35:57;35.50;;;22.33;;
32106;SDS011;18622;51.998;10.440;2023-08-20T03:38:25;32.60;;;22.47;;
32106;SDS011;18622;51.998;10.440;2023-08-20T03:40:54;30.10;;;21.63;;
32106;SDS011;18622;51.998;10.440;2023-08-20T03:43:22;32.17;;;21.37;;
32106;SDS011;18622;51.998;10.440;2023-08-20T03:45:50;33.60;;;21.87;;
32106;SDS011;18622;51.998;10.440;2023-08-20T03:48:18;33.38;;;19.90;;
32106;SDS011;18622;51.998;10.440;2023-08-20T03:50:46;30.82;;;19.65;;
32106;SDS011;18622;51.998;10.440;2023-08-20T03:53:14;30.37;;;20.00;;
32106;SDS011;18622;51.998;10.440;2023-08-20T03:55:47;31.13;;;20.40;;
32106;SDS011;18622;51.998;10.440;2023-08-20T03:58:15;25.12;;;19.37;;
32106;SDS011;18622;51.998;10.440;2023-08-20T04:00:43;30.07;;;20.43;;
32106;SDS011;18622;51.998;10.440;2023-08-20T04:03:11;28.77;;;19.30;;
32106;SDS011;18622;51.998;10.440;2023-08-20T04:05:39;31.40;;;19.82;;
32106;SDS011;18622;51.998;10.440;2023-08-20T04:08:07;29.93;;;19.70;;
32106;SDS011;18622;51.998;10.440;2023-08-20T04:10:35;26.63;;;19.10;;
32106;SDS011;18622;51.998;10.440;2023-08-20T04:13:04;29.82;;;20.27;;
32106;SDS011;18622;51.998;10.440;2023-08-20T04:15:32;29.83;;;18.77;;
32106;SDS011;18622;51.998;10.440;2023-08-20T04:18:00;31.70;;;20.40;;
32106;SDS011;18622;51.998;10.440;2023-08-20T04:20:28;28.60;;;19.27;;
32106;SDS011;18622;51.998;10.440;2023-08-20T04:22:56;31.57;;;19.40;;
32106;SDS011;18622;51.998;10.440;2023-08-20T04:25:23;27.10;;;18.60;;
32106;SDS011;18622;51.998;10.440;2023-08-20T04:27:51;28.73;;;19.17;;
32106;SDS011;18622;51.998;10.440;2023-08-20T04:30:19;30.13;;;19.30;;
32106;SDS011;18622;51.998;10.440;2023-08-20T04:32:47;31.67;;;20.00;;
32106;SDS011;18622;51.998;10.440;2023-08-20T04:35:15;34.67;;;19.77;;
32106;SDS011;18622;51.998;10.440;2023-08-20T04:37:43;38.47;;;20.00;;
32106;SDS011;18622;51.998;10.440;2023-08-20T04:40:10;28.57;;;20.00;;
32106;SDS011;18622;51.998;10.440;2023-08-20T04:42:39;34.37;;;18.77;;
32106;SDS011;18622;51.998;10.440;2023-08-20T04:45:07;27.10;;;18.67;;
32106;SDS011;18622;51.998;10.440;2023-08-20T04:47:37;24.83;;;17.40;;
32106;SDS011;18622;51.998;10.440;2023-08-20T04:50:05;25.97;;;17.05;;
32106;SDS011;18622;51.998;10.440;2023-08-20T04:52:33;27.87;;;18.80;;
32106;SDS011;18622;51.998;10.440;2023-08-20T04:55:01;27.25;;;17.02;;
32106;SDS011;18622;51.998;10.440;2023-08-20T05:00:06;21.40;;;15.87;;
32106;SDS011;18622;51.998;10.440;2023-08-20T05:02:35;27.45;;;17.05;;
32106;SDS011;18622;51.998;10.440;2023-08-20T05:05:03;23.87;;;17.20;;
32106;SDS011;18622;51.998;10.440;2023-08-20T05:07:31;24.10;;;16.67;;
32106;SDS011;18622;51.998;10.440;2023-08-20T05:09:59;30.40;;;17.50;;
32106;SDS011;18622;51.998;10.440;2023-08-20T05:12:28;24.72;;;16.75;;
32106;SDS011;18622;51.998;10.440;2023-08-20T05:14:56;21.07;;;16.20;;
32106;SDS011;18622;51.998;10.440;2023-08-20T05:17:24;23.83;;;16.80;;
32106;SDS011;18622;51.998;10.440;2023-08-20T05:19:52;21.63;;;16.47;;
32106;SDS011;18622;51.998;10.440;2023-08-20T05:22:19;27.27;;;16.63;;
32106;SDS011;18622;51.998;10.440;2023-08-20T05:24:47;24.07;;;16.43;;
32106;SDS011;18622;51.998;10.440;2023-08-20T05:27:15;20.70;;;16.00;;
32106;SDS011;18622;51.998;10.440;2023-08-20T05:29:43;19.77;;;14.95;;
32106;SDS011;18622;51.998;10.440;2023-08-20T05:32:11;20.47;;;14.67;;
32106;SDS011;18622;51.998;10.440;2023-08-20T05:34:40;18.62;;;14.53;;
32106;SDS011;18622;51.998;10.440;2023-08-20T05:37:08;19.40;;;14.23;;
32106;SDS011;18622;51.998;10.440;2023-08-20T05:39:37;18.20;;;13.63;;
32106;SDS011;18622;51.998;10.440;2023-08-20T05:42:06;16.63;;;14.13;;
32106;SDS011;18622;51.998;10.440;2023-08-20T05:44:34;17.23;;;13.77;;
32106;SDS011;18622;51.998;10.440;2023-08-20T05:47:03;16.43;;;13.60;;
32106;SDS011;18622;51.998;10.440;2023-08-20T05:49:31;20.85;;;14.00;;
32106;SDS011;18622;51.998;10.440;2023-08-20T05:51:59;18.90;;;13.10;;
32106;SDS011;18622;51.998;10.440;2023-08-20T05:57:04;18.63;;;12.10;;
32106;SDS011;18622;51.998;10.440;2023-08-20T05:59:32;16.97;;;11.77;;
32106;SDS011;18622;51.998;10.440;2023-08-20T06:02:01;19.17;;;11.50;;
32106;SDS011;18622;51.998;10.440;2023-08-20T06:04:29;15.68;;;10.78;;
32106;SDS011;18622;51.998;10.440;2023-08-20T06:06:57;14.68;;;10.93;;
32106;SDS011;18622;51.998;10.440;2023-08-20T06:09:24;13.27;;;9.70;;
32106;SDS011;18622;51.998;10.440;2023-08-20T06:11:52;18.50;;;9.80;;
32106;SDS011;18622;51.998;10.440;2023-08-20T06:14:20;17.63;;;9.90;;
32106;SDS011;18622;51.998;10.440;2023-08-20T06:16:48;15.67;;;9.60;;
32106;SDS011;18622;51.998;10.440;2023-08-20T06:19:16;11.50;;;8.80;;
32106;SDS011;18622;51.998;10.440;2023-08-20T06:21:43;11.20;;;8.40;;
32106;SDS011;18622;51.998;10.440;2023-08-20T06:24:11;11.83;;;8.10;;
32106;SDS011;18622;51.998;10.440;2023-08-20T06:26:39;11.57;;;8.60;;
32106;SDS011;18622;51.998;10.440;2023-08-20T06:29:09;10.88;;;7.10;;
32106;SDS011;18622;51.998;10.440;2023-08-20T06:31:36;13.93;;;7.77;;
32106;SDS011;18622;51.998;10.440;2023-08-20T06:34:04;11.07;;;7.13;;
32106;SDS011;18622;51.998;10.440;2023-08-20T06:36:32;13.97;;;7.43;;
32106;SDS011;18622;51.998;10.440;2023-08-20T06:39:00;9.45;;;6.83;;
32106;SDS011;18622;51.998;10.440;2023-08-20T06:41:28;9.93;;;6.90;;
32106;SDS011;18622;51.998;10.440;2023-08-20T06:43:56;10.80;;;7.03;;
32106;SDS011;18622;51.998;10.440;2023-08-20T06:46:24;12.97;;;6.83;;
32106;SDS011;18622;51.998;10.440;2023-08-20T06:48:52;12.13;;;6.47;;
32106;SDS011;18622;51.998;10.440;2023-08-20T06:51:20;9.83;;;5.93;;
32106;SDS011;18622;51.998;10.440;2023-08-20T06:53:48;13.67;;;7.10;;
32106;SDS011;18622;51.998;10.440;2023-08-20T06:56:16;12.20;;;6.70;;
32106;SDS011;18622;51.998;10.440;2023-08-20T06:58:45;8.60;;;5.90;;
32106;SDS011;18622;51.998;10.440;2023-08-20T07:01:13;11.65;;;5.20;;
32106;SDS011;18622;51.998;10.440;2023-08-20T07:03:42;4.97;;;3.80;;
32106;SDS011;18622;51.998;10.440;2023-08-20T07:06:11;6.87;;;5.08;;
32106;SDS011;18622;51.998;10.440;2023-08-20T07:11:07;9.38;;;4.45;;
32106;SDS011;18622;51.998;10.440;2023-08-20T07:13:35;6.63;;;4.90;;
32106;SDS011;18622;51.998;10.440;2023-08-20T07:16:03;8.53;;;4.12;;
32106;SDS011;18622;51.998;10.440;2023-08-20T07:18:31;8.00;;;3.40;;
32106;SDS011;18622;51.998;10.440;2023-08-20T07:20:59;4.50;;;3.10;;
32106;SDS011;18622;51.998;10.440;2023-08-20T07:23:27;8.33;;;3.23;;
32106;SDS011;18622;51.998;10.440;2023-08-20T07:26:07;3.77;;;2.37;;
32106;SDS011;18622;51.998;10.440;2023-08-20T07:28:38;6.30;;;3.20;;
32106;SDS011;18622;51.998;10.440;2023-08-20T07:31:27;4.53;;;2.37;;
32106;SDS011;18622;51.998;10.440;2023-08-20T07:33:57;6.80;;;2.30;;
32106;SDS011;18622;51.998;10.440;2023-08-20T07:36:27;5.33;;;2.37;;
32106;SDS011;18622;51.998;10.440;2023-08-20T07:38:55;4.67;;;2.40;;
32106;SDS011;18622;51.998;10.440;2023-08-20T07:41:23;4.00;;;2.13;;
32106;SDS011;18622;51.998;10.440;2023-08-20T07:43:50;7.47;;;2.73;;
32106;SDS011;18622;51.998;10.440;2023-08-20T07:46:19;6.87;;;3.10;;
32106;SDS011;18622;51.998;10.440;2023-08-20T07:48:46;4.23;;;2.40;;
32106;SDS011;18622;51.998;10.440;2023-08-20T07:51:14;5.10;;;2.40;;
32106;SDS011;18622;51.998;10.440;2023-08-20T07:53:42;6.43;;;3.40;;
32106;SDS011;18622;51.998;10.440;2023-08-20T07:56:10;4.13;;;2.50;;
32106;SDS011;18622;51.998;10.440;2023-08-20T07:58:38;6.70;;;2.90;;
32106;SDS011;18622;51.998;10.440;2023-08-20T08:01:05;4.47;;;2.87;;
32106;SDS011;18622;51.998;10.440;2023-08-20T08:03:33;3.97;;;2.57;;
32106;SDS011;18622;51.998;10.440;2023-08-20T08:06:01;7.47;;;2.90;;
32106;SDS011;18622;51.998;10.440;2023-08-20T08:08:29;4.23;;;2.43;;
32106;SDS011;18622;51.998;10.440;2023-08-20T08:10:57;5.83;;;2.97;;
32106;SDS011;18622;51.998;10.440;2023-08-20T08:13:25;7.33;;;3.00;;
32106;SDS011;18622;51.998;10.440;2023-08-20T08:15:53;5.30;;;2.30;;
32106;SDS011;18622;51.998;10.440;2023-08-20T08:18:20;6.20;;;2.77;;
32106;SDS011;18622;51.998;10.440;2023-08-20T08:20:48;3.37;;;2.33;;
32106;SDS011;18622;51.998;10.440;2023-08-20T08:23:16;4.63;;;3.03;;
32106;SDS011;18622;51.998;10.440;2023-08-20T08:25:44;3.73;;;2.50;;
32106;SDS011;18622;51.998;10.440;2023-08-20T08:28:12;8.03;;;3.57;;
32106;SDS011;18622;51.998;10.440;2023-08-20T08:30:40;3.87;;;2.57;;
32106;SDS011;18622;51.998;10.440;2023-08-20T08:33:08;4.07;;;2.70;;
32106;SDS011;18622;51.998;10.440;2023-08-20T08:35:36;6.23;;;2.60;;
32106;SDS011;18622;51.998;10.440;2023-08-20T08:38:03;5.83;;;3.10;;
32106;SDS011;18622;51.998;10.440;2023-08-20T08:40:31;4.67;;;2.40;;
32106;SDS011;18622;51.998;10.440;2023-08-20T08:43:00;3.50;;;2.42;;
32106;SDS011;18622;51.998;10.440;2023-08-20T08:45:29;8.60;;;3.53;;
32106;SDS011;18622;51.998;10.440;2023-08-20T08:47:57;4.73;;;2.40;;
32106;SDS011;18622;51.998;10.440;2023-08-20T08:50:25;8.67;;;2.63;;
32106;SDS011;18622;51.998;10.440;2023-08-20T08:52:53;7.47;;;3.60;;
32106;SDS011;18622;51.998;10.440;2023-08-20T08:55:21;7.12;;;3.55;;
32106;SDS011;18622;51.998;10.440;2023-08-20T08:57:49;6.33;;;3.10;;
32106;SDS011;18622;51.998;10.440;2023-08-20T09:00:18;5.97;;;3.10;;
32106;SDS011;18622;51.998;10.440;2023-08-20T09:02:46;4.00;;;3.30;;
32106;SDS011;18622;51.998;10.440;2023-08-20T09:05:13;3.70;;;2.87;;
32106;SDS011;18622;51.998;10.440;2023-08-20T09:07:44;8.20;;;3.07;;
32106;SDS011;18622;51.998;10.440;2023-08-20T09:10:11;6.42;;;4.42;;
32106;SDS011;18622;51.998;10.440;2023-08-20T09:12:41;5.45;;;3.95;;
32106;SDS011;18622;51.998;10.440;2023-08-20T09:15:11;4.03;;;3.20;;
32106;SDS011;18622;51.998;10.440;2023-08-20T09:17:41;4.25;;;3.35;;
32106;SDS011;18622;51.998;10.440;2023-08-20T09:20:09;3.92;;;3.15;;
32106;SDS011;18622;51.998;10.440;2023-08-20T09:22:37;4.40;;;2.87;;
32106;SDS011;18622;51.998;10.440;2023-08-20T09:25:05;3.57;;;3.27;;
32106;SDS011;18622;51.998;10.440;2023-08-20T09:27:42;4.00;;;3.00;;
32106;SDS011;18622;51.998;10.440;2023-08-20T09:30:09;2.93;;;2.70;;
32106;SDS011;18622;51.998;10.440;2023-08-20T09:33:02;6.03;;;2.80;;
32106;SDS011;18622;51.998;10.440;2023-08-20T09:35:32;5.90;;;2.97;;
32106;SDS011;18622;51.998;10.440;2023-08-20T09:38:00;4.60;;;3.03;;
32106;SDS011;18622;51.998;10.440;2023-08-20T09:40:30;4.00;;;2.90;;
32106;SDS011;18622;51.998;10.440;2023-08-20T09:42:58;3.73;;;3.37;;
32106;SDS011;18622;51.998;10.440;2023-08-20T09:45:28;4.03;;;3.30;;
32106;SDS011;18622;51.998;10.440;2023-08-20T09:47:57;6.53;;;2.90;;
32106;SDS011;18622;51.998;10.440;2023-08-20T09:50:26;3.87;;;2.70;;
32106;SDS011;18622;51.998;10.440;2023-08-20T09:52:59;3.70;;;3.15;;
32106;SDS011;18622;51.998;10.440;2023-08-20T09:55:35;3.93;;;2.83;;
32106;SDS011;18622;51.998;10.440;2023-08-20T09:58:05;3.37;;;3.07;;
32106;SDS011;18622;51.998;10.440;2023-08-20T10:00:33;5.22;;;3.33;;
32106;SDS011;18622;51.998;10.440;2023-08-20T10:03:02;3.20;;;2.90;;
32106;SDS011;18622;51.998;10.440;2023-08-20T10:05:30;5.53;;;2.87;;
32106;SDS011;18622;51.998;10.440;2023-08-20T10:07:59;9.23;;;3.87;;
32106;SDS011;18622;51.998;10.440;2023-08-20T10:10:28;3.45;;;3.17;;
32106;SDS011;18622;51.998;10.440;2023-08-20T10:12:57;4.17;;;3.20;;
32106;SDS011;18622;51.998;10.440;2023-08-20T10:15:25;3.43;;;3.13;;
32106;SDS011;18622;51.998;10.440;2023-08-20T10:17:55;5.60;;;3.13;;
32106;SDS011;18622;51.998;10.440;2023-08-20T10:20:24;3.90;;;3.20;;
32106;SDS011;18622;51.998;10.440;2023-08-20T10:22:59;3.70;;;2.97;;
32106;SDS011;18622;51.998;10.440;2023-08-20T10:25:29;3.30;;;3.00;;
32106;SDS011;18622;51.998;10.440;2023-08-20T10:31:09;4.10;;;3.30;;
32106;SDS011;18622;51.998;10.440;2023-08-20T10:33:36;4.75;;;3.52;;
32106;SDS011;18622;51.998;10.440;2023-08-20T10:36:10;7.25;;;3.37;;
32106;SDS011;18622;51.998;10.440;2023-08-20T10:38:46;3.60;;;3.30;;
32106;SDS011;18622;51.998;10.440;2023-08-20T10:41:13;3.52;;;3.22;;
32106;SDS011;18622;51.998;10.440;2023-08-20T10:43:50;5.50;;;3.58;;
32106;SDS011;18622;51.998;10.440;2023-08-20T10:46:21;5.20;;;3.50;;
32106;SDS011;18622;51.998;10.440;2023-08-20T10:51:36;6.28;;;4.72;;
32106;SDS011;18622;51.998;10.440;2023-08-20T10:56:42;4.22;;;3.92;;
32106;SDS011;18622;51.998;10.440;2023-08-20T10:59:21;5.53;;;4.00;;
32106;SDS011;18622;51.998;10.440;2023-08-20T11:02:00;4.28;;;3.87;;
32106;SDS011;18622;51.998;10.440;2023-08-20T11:04:29;4.72;;;4.03;;
32106;SDS011;18622;51.998;10.440;2023-08-20T11:07:01;4.87;;;4.35;;
32106;SDS011;18622;51.998;10.440;2023-08-20T11:09:30;4.90;;;4.50;;
32106;SDS011;18622;51.998;10.440;2023-08-20T11:14:25;5.70;;;3.95;;
32106;SDS011;18622;51.998;10.440;2023-08-20T11:16:53;5.80;;;5.30;;
32106;SDS011;18622;51.998;10.440;2023-08-20T11:19:22;5.40;;;4.60;;
32106;SDS011;18622;51.998;10.440;2023-08-20T11:21:50;6.60;;;3.80;;
32106;SDS011;18622;51.998;10.440;2023-08-20T11:24:18;5.83;;;4.00;;
32106;SDS011;18622;51.998;10.440;2023-08-20T11:26:47;4.20;;;3.90;;
32106;SDS011;18622;51.998;10.440;2023-08-20T11:29:15;4.53;;;4.13;;
32106;SDS011;18622;51.998;10.440;2023-08-20T11:31:45;4.70;;;4.12;;
32106;SDS011;18622;51.998;10.440;2023-08-20T11:34:14;5.17;;;4.30;;
32106;SDS011;18622;51.998;10.440;2023-08-20T11:36:42;3.93;;;3.63;;
32106;SDS011;18622;51.998;10.440;2023-08-20T11:39:10;4.12;;;3.67;;
32106;SDS011;18622;51.998;10.440;2023-08-20T11:41:38;3.75;;;3.33;;
32106;SDS011;18622;51.998;10.440;2023-08-20T11:46:45;5.08;;;3.60;;
32106;SDS011;18622;51.998;10.440;2023-08-20T11:49:10;4.07;;;3.67;;
32106;SDS011;18622;51.998;10.440;2023-08-20T11:54:07;5.62;;;3.50;;
32106;SDS011;18622;51.998;10.440;2023-08-20T11:57:23;4.15;;;3.72;;
32106;SDS011;18622;51.998;10.440;2023-08-20T11:59:13;4.25;;;3.87;;
32106;SDS011;18622;51.998;10.440;2023-08-20T12:01:42;4.33;;;3.92;;
32106;SDS011;18622;51.998;10.440;2023-08-20T12:04:10;4.08;;;3.27;;
32106;SDS011;18622;51.998;10.440;2023-08-20T12:09:20;4.37;;;3.98;;
32106;SDS011;18622;51.998;10.440;2023-08-20T12:11:49;5.50;;;3.90;;
32106;SDS011;18622;51.998;10.440;2023-08-20T12:14:20;5.60;;;3.85;;
32106;SDS011;18622;51.998;10.440;2023-08-20T12:16:48;4.30;;;3.90;;
32106;SDS011;18622;51.998;10.440;2023-08-20T12:19:18;4.95;;;3.95;;
32106;SDS011;18622;51.998;10.440;2023-08-20T12:21:46;5.40;;;3.75;;
32106;SDS011;18622;51.998;10.440;2023-08-20T12:24:15;4.30;;;3.90;;
32106;SDS011;18622;51.998;10.440;2023-08-20T12:26:44;4.30;;;3.90;;
32106;SDS011;18622;51.998;10.440;2023-08-20T12:29:13;4.25;;;3.85;;
32106;SDS011;18622;51.998;10.440;2023-08-20T12:31:40;4.37;;;4.00;;
32106;SDS011;18622;51.998;10.440;2023-08-20T12:34:09;5.60;;;4.37;;
32106;SDS011;18622;51.998;10.440;2023-08-20T12:36:36;5.20;;;4.63;;
32106;SDS011;18622;51.998;10.440;2023-08-20T12:39:04;4.65;;;4.28;;
32106;SDS011;18622;51.998;10.440;2023-08-20T12:41:33;4.87;;;4.47;;
32106;SDS011;18622;51.998;10.440;2023-08-20T12:44:02;6.67;;;4.17;;
32106;SDS011;18622;51.998;10.440;2023-08-20T12:46:30;6.33;;;4.53;;
32106;SDS011;18622;51.998;10.440;2023-08-20T12:48:58;4.10;;;3.80;;
32106;SDS011;18622;51.998;10.440;2023-08-20T12:51:26;3.97;;;3.67;;
32106;SDS011;18622;51.998;10.440;2023-08-20T12:53:54;6.40;;;3.83;;
32106;SDS011;18622;51.998;10.440;2023-08-20T12:56:22;4.10;;;3.70;;
32106;SDS011;18622;51.998;10.440;2023-08-20T12:58:50;7.50;;;3.75;;
32106;SDS011;18622;51.998;10.440;2023-08-20T13:01:17;4.28;;;3.60;;
32106;SDS011;18622;51.998;10.440;2023-08-20T13:03:45;5.23;;;4.07;;
32106;SDS011;18622;51.998;10.440;2023-08-20T13:06:14;5.70;;;3.65;;
32106;SDS011;18622;51.998;10.440;2023-08-20T13:08:42;4.85;;;3.90;;
32106;SDS011;18622;51.998;10.440;2023-08-20T13:11:11;4.62;;;3.55;;
32106;SDS011;18622;51.998;10.440;2023-08-20T13:13:40;4.28;;;3.80;;
32106;SDS011;18622;51.998;10.440;2023-08-20T13:16:09;4.50;;;4.08;;
32106;SDS011;18622;51.998;10.440;2023-08-20T13:18:37;6.10;;;3.62;;
32106;SDS011;18622;51.998;10.440;2023-08-20T13:21:05;5.35;;;3.72;;
32106;SDS011;18622;51.998;10.440;2023-08-20T13:23:34;4.60;;;3.45;;
32106;SDS011;18622;51.998;10.440;2023-08-20T13:26:02;6.42;;;3.80;;
32106;SDS011;18622;51.998;10.440;2023-08-20T13:28:29;6.12;;;4.03;;
32106;SDS011;18622;51.998;10.440;2023-08-20T13:30:58;5.45;;;3.40;;
32106;SDS011;18622;51.998;10.440;2023-08-20T13:33:25;5.92;;;3.33;;
32106;SDS011;18622;51.998;10.440;2023-08-20T13:35:53;5.35;;;3.33;;
32106;SDS011;18622;51.998;10.440;2023-08-20T13:38:22;3.77;;;3.40;;
32106;SDS011;18622;51.998;10.440;2023-08-20T13:40:51;4.20;;;3.22;;
32106;SDS011;18622;51.998;10.440;2023-08-20T13:43:19;5.50;;;3.17;;
32106;SDS011;18622;51.998;10.440;2023-08-20T13:45:47;8.85;;;3.30;;
32106;SDS011;18622;51.998;10.440;2023-08-20T13:48:14;8.15;;;3.58;;
32106;SDS011;18622;51.998;10.440;2023-08-20T13:50:42;5.30;;;3.77;;
32106;SDS011;18622;51.998;10.440;2023-08-20T13:53:09;6.47;;;3.17;;
32106;SDS011;18622;51.998;10.440;2023-08-20T13:55:37;3.67;;;3.25;;
32106;SDS011;18622;51.998;10.440;2023-08-20T13:58:05;5.10;;;3.05;;
32106;SDS011;18622;51.998;10.440;2023-08-20T14:00:33;4.03;;;3.55;;
32106;SDS011;18622;51.998;10.440;2023-08-20T14:03:01;3.63;;;3.30;;
32106;SDS011;18622;51.998;10.440;2023-08-20T14:05:29;7.00;;;3.33;;
32106;SDS011;18622;51.998;10.440;2023-08-20T14:07:56;4.12;;;3.35;;
32106;SDS011;18622;51.998;10.440;2023-08-20T14:10:24;6.20;;;3.52;;
32106;SDS011;18622;51.998;10.440;2023-08-20T14:12:51;6.13;;;3.40;;
32106;SDS011;18622;51.998;10.440;2023-08-20T14:15:19;3.95;;;3.52;;
32106;SDS011;18622;51.998;10.440;2023-08-20T14:17:46;4.25;;;3.10;;
32106;SDS011;18622;51.998;10.440;2023-08-20T14:20:14;4.03;;;3.40;;
32106;SDS011;18622;51.998;10.440;2023-08-20T14:22:42;6.63;;;3.33;;
32106;SDS011;18622;51.998;10.440;2023-08-20T14:25:10;3.70;;;3.40;;
32106;SDS011;18622;51.998;10.440;2023-08-20T14:27:38;4.28;;;3.90;;
32106;SDS011;18622;51.998;10.440;2023-08-20T14:30:06;4.75;;;4.28;;
32106;SDS011;18622;51.998;10.440;2023-08-20T14:32:36;4.60;;;4.20;;
32106;SDS011;18622;51.998;10.440;2023-08-20T14:35:03;7.40;;;4.27;;
32106;SDS011;18622;51.998;10.440;2023-08-20T14:37:32;5.05;;;3.98;;
32106;SDS011;18622;51.998;10.440;2023-08-20T14:39:59;7.40;;;3.90;;
32106;SDS011;18622;51.998;10.440;2023-08-20T14:42:27;4.33;;;3.92;;
32106;SDS011;18622;51.998;10.440;2023-08-20T14:44:55;4.65;;;3.62;;
32106;SDS011;18622;51.998;10.440;2023-08-20T14:47:22;4.83;;;4.33;;
32106;SDS011;18622;51.998;10.440;2023-08-20T14:49:50;6.80;;;4.80;;
32106;SDS011;18622;51.998;10.440;2023-08-20T14:52:18;4.33;;;3.93;;
32106;SDS011;18622;51.998;10.440;2023-08-20T14:54:45;5.17;;;4.27;;
32106;SDS011;18622;51.998;10.440;2023-08-20T14:57:13;4.90;;;4.40;;
32106;SDS011;18622;51.998;10.440;2023-08-20T14:59:43;6.65;;;4.20;;
32106;SDS011;18622;51.998;10.440;2023-08-20T15:02:11;4.60;;;4.20;;
32106;SDS011;18622;51.998;10.440;2023-08-20T15:04:39;8.90;;;4.60;;
32106;SDS011;18622;51.998;10.440;2023-08-20T15:07:06;8.43;;;4.63;;
32106;SDS011;18622;51.998;10.440;2023-08-20T15:09:34;12.33;;;4.60;;
32106;SDS011;18622;51.998;10.440;2023-08-20T15:12:04;6.28;;;5.10;;
32106;SDS011;18622;51.998;10.440;2023-08-20T15:16:59;5.05;;;4.60;;
32106;SDS011;18622;51.998;10.440;2023-08-20T15:19:27;4.80;;;4.43;;
32106;SDS011;18622;51.998;10.440;2023-08-20T15:21:54;5.33;;;4.83;;
32106;SDS011;18622;51.998;10.440;2023-08-20T15:24:22;5.30;;;4.90;;
32106;SDS011;18622;51.998;10.440;2023-08-20T15:26:49;6.80;;;5.37;;
32106;SDS011;18622;51.998;10.440;2023-08-20T15:29:17;6.03;;;4.92;;
32106;SDS011;18622;51.998;10.440;2023-08-20T15:31:45;5.22;;;4.70;;
32106;SDS011;18622;51.998;10.440;2023-08-20T15:34:14;5.45;;;5.03;;
32106;SDS011;18622;51.998;10.440;2023-08-20T15:36:42;5.97;;;5.50;;
32106;SDS011;18622;51.998;10.440;2023-08-20T15:39:10;6.15;;;5.65;;
32106;SDS011;18622;51.998;10.440;2023-08-20T15:41:39;7.60;;;5.90;;
32106;SDS011;18622;51.998;10.440;2023-08-20T15:44:07;6.80;;;6.15;;
32106;SDS011;18622;51.998;10.440;2023-08-20T15:46:35;6.17;;;5.70;;
32106;SDS011;18622;51.998;10.440;2023-08-20T15:49:04;6.80;;;6.33;;
32106;SDS011;18622;51.998;10.440;2023-08-20T15:51:32;6.08;;;5.58;;
32106;SDS011;18622;51.998;10.440;2023-08-20T15:54:02;6.05;;;5.60;;
32106;SDS011;18622;51.998;10.440;2023-08-20T15:56:30;5.85;;;5.37;;
32106;SDS011;18622;51.998;10.440;2023-08-20T15:58:57;6.10;;;5.50;;
32106;SDS011;18622;51.998;10.440;2023-08-20T16:01:25;5.65;;;5.17;;
32106;SDS011;18622;51.998;10.440;2023-08-20T16:03:54;6.75;;;6.15;;
32106;SDS011;18622;51.998;10.440;2023-08-20T16:06:22;6.10;;;5.70;;
32106;SDS011;18622;51.998;10.440;2023-08-20T16:08:49;6.03;;;5.53;;
32106;SDS011;18622;51.998;10.440;2023-08-20T16:11:17;6.72;;;6.12;;
32106;SDS011;18622;51.998;10.440;2023-08-20T16:13:45;6.53;;;6.00;;
32106;SDS011;18622;51.998;10.440;2023-08-20T16:16:13;7.53;;;6.10;;
32106;SDS011;18622;51.998;10.440;2023-08-20T16:18:42;7.22;;;5.83;;
32106;SDS011;18622;51.998;10.440;2023-08-20T16:21:09;10.65;;;6.17;;
32106;SDS011;18622;51.998;10.440;2023-08-20T16:23:38;6.30;;;5.70;;
32106;SDS011;18622;51.998;10.440;2023-08-20T16:26:06;6.15;;;5.65;;
32106;SDS011;18622;51.998;10.440;2023-08-20T16:28:34;5.78;;;5.42;;
32106;SDS011;18622;51.998;10.440;2023-08-20T16:31:02;7.62;;;5.75;;
32106;SDS011;18622;51.998;10.440;2023-08-20T16:33:30;6.12;;;5.62;;
32106;SDS011;18622;51.998;10.440;2023-08-20T16:35:58;7.10;;;5.30;;
32106;SDS011;18622;51.998;10.440;2023-08-20T16:38:26;5.33;;;4.85;;
32106;SDS011;18622;51.998;10.440;2023-08-20T16:40:53;5.00;;;4.50;;
32106;SDS011;18622;51.998;10.440;2023-08-20T16:43:21;6.53;;;4.40;;
32106;SDS011;18622;51.998;10.440;2023-08-20T16:45:53;5.00;;;3.97;;
32106;SDS011;18622;51.998;10.440;2023-08-20T16:48:23;7.53;;;3.95;;
32106;SDS011;18622;51.998;10.440;2023-08-20T16:50:50;5.72;;;3.83;;
32106;SDS011;18622;51.998;10.440;2023-08-20T16:53:18;5.42;;;3.58;;
32106;SDS011;18622;51.998;10.440;2023-08-20T16:55:52;8.43;;;3.40;;
32106;SDS011;18622;51.998;10.440;2023-08-20T16:58:21;7.05;;;3.60;;
32106;SDS011;18622;51.998;10.440;2023-08-20T17:00:49;6.60;;;3.50;;
32106;SDS011;18622;51.998;10.440;2023-08-20T17:03:17;6.10;;;3.58;;
32106;SDS011;18622;51.998;10.440;2023-08-20T17:05:44;6.00;;;3.70;;
32106;SDS011;18622;51.998;10.440;2023-08-20T17:08:12;4.63;;;4.10;;
32106;SDS011;18622;51.998;10.440;2023-08-20T17:10:39;5.95;;;4.20;;
32106;SDS011;18622;51.998;10.440;2023-08-20T17:13:07;6.47;;;3.93;;
32106;SDS011;18622;51.998;10.440;2023-08-20T17:15:35;10.23;;;4.60;;
32106;SDS011;18622;51.998;10.440;2023-08-20T17:18:03;4.27;;;3.87;;
32106;SDS011;18622;51.998;10.440;2023-08-20T17:20:31;7.27;;;4.27;;
32106;SDS011;18622;51.998;10.440;2023-08-20T17:23:01;7.50;;;3.67;;
32106;SDS011;18622;51.998;10.440;2023-08-20T17:25:29;9.47;;;3.63;;
32106;SDS011;18622;51.998;10.440;2023-08-20T17:27:57;6.67;;;3.97;;
32106;SDS011;18622;51.998;10.440;2023-08-20T17:30:25;7.73;;;4.27;;
32106;SDS011;18622;51.998;10.440;2023-08-20T17:32:52;10.33;;;5.13;;
32106;SDS011;18622;51.998;10.440;2023-08-20T17:35:20;11.40;;;5.63;;
32106;SDS011;18622;51.998;10.440;2023-08-20T17:37:48;11.80;;;6.20;;
32106;SDS011;18622;51.998;10.440;2023-08-20T17:40:16;9.10;;;4.97;;
32106;SDS011;18622;51.998;10.440;2023-08-20T17:42:44;8.83;;;3.87;;
32106;SDS011;18622;51.998;10.440;2023-08-20T17:45:11;6.67;;;4.07;;
32106;SDS011;18622;51.998;10.440;2023-08-20T17:47:39;8.03;;;4.57;;
32106;SDS011;18622;51.998;10.440;2023-08-20T17:50:07;7.10;;;3.77;;
32106;SDS011;18622;51.998;10.440;2023-08-20T17:52:35;7.80;;;3.80;;
32106;SDS011;18622;51.998;10.440;2023-08-20T17:55:03;8.93;;;4.13;;
32106;SDS011;18622;51.998;10.440;2023-08-20T17:57:32;8.03;;;4.00;;
32106;SDS011;18622;51.998;10.440;2023-08-20T18:00:00;8.37;;;3.70;;
32106;SDS011;18622;51.998;10.440;2023-08-20T18:02:27;12.17;;;4.03;;
32106;SDS011;18622;51.998;10.440;2023-08-20T18:04:55;5.60;;;3.90;;
32106;SDS011;18622;51.998;10.440;2023-08-20T18:07:23;7.30;;;4.27;;
32106;SDS011;18622;51.998;10.440;2023-08-20T18:09:51;6.23;;;4.17;;
32106;SDS011;18622;51.998;10.440;2023-08-20T18:12:19;7.23;;;3.53;;
32106;SDS011;18622;51.998;10.440;2023-08-20T18:14:46;10.10;;;4.27;;
32106;SDS011;18622;51.998;10.440;2023-08-20T18:17:14;11.67;;;4.07;;
32106;SDS011;18622;51.998;10.440;2023-08-20T18:19:42;12.00;;;3.93;;
32106;SDS011;18622;51.998;10.440;2023-08-20T18:22:10;13.03;;;4.07;;
32106;SDS011;18622;51.998;10.440;2023-08-20T18:24:38;6.60;;;4.13;;
32106;SDS011;18622;51.998;10.440;2023-08-20T18:27:05;14.13;;;4.17;;
32106;SDS011;18622;51.998;10.440;2023-08-20T18:29:33;21.33;;;4.77;;
32106;SDS011;18622;51.998;10.440;2023-08-20T18:32:01;20.60;;;4.60;;
32106;SDS011;18622;51.998;10.440;2023-08-20T18:34:30;6.83;;;4.73;;
32106;SDS011;18622;51.998;10.440;2023-08-20T18:36:58;8.00;;;4.20;;